^^

Nearby METAR Reports

 

EGAC - Belfast Harbour, United Kingdom
Distance from station: W 8mi, 13km
Updated: 23/01/2019 07:20
Few Clouds
Few Clouds
 Wind from WSW
Wind: WSW 5 mph , 7 km/h
Temperature: 1°C
Wind Chill: -2°C
Dew Point: 0°C
Humidity: 93%
Barometer: 1002 hPa
Clouds: Few Clouds
Visibility: 6 miles , 10 km
Cloud details: Few Clouds 945 m
2019/01/23 07:20 EGAC 230720Z AUTO 25004KT 9999 FEW031/// 01/M00 Q1002
EGAA - Belfast/Aldergro, United Kingdom
Distance from station: W 22mi, 35km
Updated: 23/01/2019 07:20
Clear
Clear
 Wind from calm
Wind: Calm
Temperature: 0°C
Dew Point: -1°C
Humidity: 93%
Barometer: 1002 hPa
Summary: Clear
Visibility: greater than 7 miles , 10 km
2019/01/23 07:20 EGAA 230720Z 00000KT CAVOK M00/M01 Q1002
 
EGNS - Isle Of Man/Rona, United Kingdom
Distance from station: SE 57mi, 91km
Updated: 23/01/2019 07:20
Few Clouds
Few Clouds
 Wind from varies
Wind: varies 2 mph , 4 km/h
Temperature: 2°C
Dew Point: 1°C
Humidity: 93%
Barometer: 1002 hPa
Clouds: Few Clouds
Visibility: 6 miles , 10 km
Cloud details: Few Clouds 488 m
2019/01/23 07:20 EGNS 230720Z VRB02KT 9999 FEW016CB 02/01 Q1002 TEMPO 5000 SHRASN BKN014CB
EGPK - Prestwick(Civ/Na, United Kingdom
Distance from station: NE 74mi, 119km
Updated: 23/01/2019 07:20
Partly cloudy
Partly cloudy
 Wind from calm
Wind: Calm
Temperature: -4°C
Dew Point: -4°C
Humidity: 100%
Barometer: 1002 hPa
Clouds: Partly cloudy
Visibility: 6 miles , 10 km
Cloud details: Few Clouds 366 m
Partly cloudy 762 m
2019/01/23 07:20 EGPK 230720Z 00000KT 9999 FEW012 SCT025 M04/M04 Q1002
 
EIDW - Dublin Airport, Ireland
Distance from station: SSW 87mi, 141km
Updated: 23/01/2019 07:30
Mostly cloudy
Mostly cloudy
 Wind from W
Wind: W 13 mph , 20 km/h
Temperature: 0°C
Wind Chill: -6°C
Dew Point: 0°C
Humidity: 100%
Barometer: 1004 hPa
Clouds: Mostly cloudy
Visibility: 6 miles , 10 km
Cloud details: Few Clouds 549 m
Partly cloudy 2743 m
Mostly cloudy 7620 m
2019/01/23 07:30 EIDW 230730Z 27011KT 9999 FEW018 SCT090 BKN250 00/M00 Q1004 R10/090095 R16/190095 NOSIG
EGPF - Glasgow Airport, United Kingdom
Distance from station: NNE 98mi, 158km
Updated: 23/01/2019 07:20
Clear
Clear
 Wind from WSW
Wind: WSW 6 mph , 9 km/h
Temperature: -5°C
Wind Chill: -9°C
Dew Point: -6°C
Humidity: 93%
Barometer: 1001 hPa
Clouds: Clear
Visibility: 6 miles , 10 km
2019/01/23 07:20 EGPF 230720Z AUTO 25005KT 9999 NCD M05/M06 Q1001